sensor_id;sensor_type;location;lat;lon;timestamp;P1;durP1;ratioP1;P2;durP2;ratioP2
76856;SDS011;69705;44.686;37.628;2023-05-10T00:00:36;1.73;;;0.50;;
76856;SDS011;69705;44.686;37.628;2023-05-10T00:03:03;2.42;;;0.50;;
76856;SDS011;69705;44.686;37.628;2023-05-10T00:05:31;3.37;;;0.50;;
76856;SDS011;69705;44.686;37.628;2023-05-10T00:07:57;1.42;;;0.50;;
76856;SDS011;69705;44.686;37.628;2023-05-10T00:10:24;1.35;;;0.50;;
76856;SDS011;69705;44.686;37.628;2023-05-10T00:12:51;1.42;;;0.50;;
76856;SDS011;69705;44.686;37.628;2023-05-10T00:15:17;2.38;;;0.60;;
76856;SDS011;69705;44.686;37.628;2023-05-10T00:17:44;2.33;;;0.50;;
76856;SDS011;69705;44.686;37.628;2023-05-10T00:20:11;1.80;;;0.50;;
76856;SDS011;69705;44.686;37.628;2023-05-10T00:22:37;1.40;;;0.50;;
76856;SDS011;69705;44.686;37.628;2023-05-10T00:25:08;1.98;;;0.50;;
76856;SDS011;69705;44.686;37.628;2023-05-10T00:27:36;4.50;;;0.57;;
76856;SDS011;69705;44.686;37.628;2023-05-10T00:30:02;1.40;;;0.50;;
76856;SDS011;69705;44.686;37.628;2023-05-10T00:32:31;2.10;;;0.60;;
76856;SDS011;69705;44.686;37.628;2023-05-10T00:34:57;1.90;;;0.60;;
76856;SDS011;69705;44.686;37.628;2023-05-10T00:37:24;2.95;;;0.50;;
76856;SDS011;69705;44.686;37.628;2023-05-10T00:39:50;1.95;;;0.60;;
76856;SDS011;69705;44.686;37.628;2023-05-10T00:42:17;3.30;;;0.70;;
76856;SDS011;69705;44.686;37.628;2023-05-10T00:44:43;2.25;;;0.50;;
76856;SDS011;69705;44.686;37.628;2023-05-10T00:47:10;3.38;;;0.50;;
76856;SDS011;69705;44.686;37.628;2023-05-10T00:49:37;1.67;;;0.50;;
76856;SDS011;69705;44.686;37.628;2023-05-10T00:52:04;3.30;;;0.70;;
76856;SDS011;69705;44.686;37.628;2023-05-10T00:54:31;2.53;;;0.60;;
76856;SDS011;69705;44.686;37.628;2023-05-10T00:56:58;2.08;;;0.55;;
76856;SDS011;69705;44.686;37.628;2023-05-10T00:59:25;2.78;;;0.60;;
76856;SDS011;69705;44.686;37.628;2023-05-10T01:01:52;1.20;;;0.50;;
76856;SDS011;69705;44.686;37.628;2023-05-10T01:04:19;2.67;;;0.57;;
76856;SDS011;69705;44.686;37.628;2023-05-10T01:06:51;1.87;;;0.60;;
76856;SDS011;69705;44.686;37.628;2023-05-10T01:09:20;2.67;;;0.70;;
76856;SDS011;69705;44.686;37.628;2023-05-10T01:11:47;2.45;;;0.68;;
76856;SDS011;69705;44.686;37.628;2023-05-10T01:14:15;2.55;;;0.70;;
76856;SDS011;69705;44.686;37.628;2023-05-10T01:16:46;2.42;;;0.70;;
76856;SDS011;69705;44.686;37.628;2023-05-10T01:19:28;2.83;;;0.83;;
76856;SDS011;69705;44.686;37.628;2023-05-10T01:46:41;3.60;;;0.83;;
76856;SDS011;69705;44.686;37.628;2023-05-10T01:49:10;2.58;;;0.70;;
76856;SDS011;69705;44.686;37.628;2023-05-10T01:51:50;5.03;;;0.90;;
76856;SDS011;69705;44.686;37.628;2023-05-10T01:54:21;3.78;;;0.90;;
76856;SDS011;69705;44.686;37.628;2023-05-10T01:56:52;4.18;;;0.82;;
76856;SDS011;69705;44.686;37.628;2023-05-10T01:59:26;3.70;;;0.90;;
76856;SDS011;69705;44.686;37.628;2023-05-10T02:01:57;5.32;;;1.00;;
76856;SDS011;69705;44.686;37.628;2023-05-10T02:04:25;3.70;;;0.80;;
76856;SDS011;69705;44.686;37.628;2023-05-10T02:06:53;3.55;;;0.80;;
76856;SDS011;69705;44.686;37.628;2023-05-10T02:09:21;4.13;;;0.85;;
76856;SDS011;69705;44.686;37.628;2023-05-10T02:11:50;2.73;;;0.63;;
76856;SDS011;69705;44.686;37.628;2023-05-10T02:14:16;3.08;;;0.80;;
76856;SDS011;69705;44.686;37.628;2023-05-10T02:16:44;7.32;;;0.90;;
76856;SDS011;69705;44.686;37.628;2023-05-10T02:19:12;3.15;;;0.75;;
76856;SDS011;69705;44.686;37.628;2023-05-10T02:21:41;3.42;;;0.80;;
76856;SDS011;69705;44.686;37.628;2023-05-10T02:24:09;3.10;;;0.73;;
76856;SDS011;69705;44.686;37.628;2023-05-10T02:26:37;4.00;;;1.00;;
76856;SDS011;69705;44.686;37.628;2023-05-10T02:29:04;2.83;;;0.85;;
76856;SDS011;69705;44.686;37.628;2023-05-10T02:31:32;2.92;;;0.90;;
76856;SDS011;69705;44.686;37.628;2023-05-10T02:34:01;3.72;;;0.85;;
76856;SDS011;69705;44.686;37.628;2023-05-10T02:36:28;3.00;;;0.80;;
76856;SDS011;69705;44.686;37.628;2023-05-10T02:38:56;3.47;;;0.80;;
76856;SDS011;69705;44.686;37.628;2023-05-10T02:41:24;3.00;;;0.90;;
76856;SDS011;69705;44.686;37.628;2023-05-10T02:43:52;3.30;;;0.90;;
76856;SDS011;69705;44.686;37.628;2023-05-10T02:46:23;2.90;;;0.90;;
76856;SDS011;69705;44.686;37.628;2023-05-10T02:48:50;2.80;;;0.80;;
76856;SDS011;69705;44.686;37.628;2023-05-10T02:51:17;3.88;;;0.90;;
76856;SDS011;69705;44.686;37.628;2023-05-10T02:53:46;2.90;;;0.82;;
76856;SDS011;69705;44.686;37.628;2023-05-10T02:56:18;3.13;;;0.90;;
76856;SDS011;69705;44.686;37.628;2023-05-10T02:58:51;4.40;;;0.88;;
76856;SDS011;69705;44.686;37.628;2023-05-10T03:01:18;4.70;;;1.10;;
76856;SDS011;69705;44.686;37.628;2023-05-10T03:03:45;3.58;;;0.88;;
76856;SDS011;69705;44.686;37.628;2023-05-10T03:06:11;3.55;;;0.80;;
76856;SDS011;69705;44.686;37.628;2023-05-10T03:08:38;3.78;;;0.90;;
76856;SDS011;69705;44.686;37.628;2023-05-10T03:11:17;3.97;;;0.82;;
76856;SDS011;69705;44.686;37.628;2023-05-10T03:17:11;3.10;;;0.98;;
76856;SDS011;69705;44.686;37.628;2023-05-10T03:19:56;2.80;;;0.80;;
76856;SDS011;69705;44.686;37.628;2023-05-10T03:22:30;3.17;;;0.80;;
76856;SDS011;69705;44.686;37.628;2023-05-10T03:24:58;3.13;;;0.90;;
76856;SDS011;69705;44.686;37.628;2023-05-10T03:27:31;3.57;;;1.00;;
76856;SDS011;69705;44.686;37.628;2023-05-10T03:29:59;4.07;;;1.00;;
76856;SDS011;69705;44.686;37.628;2023-05-10T03:32:30;4.07;;;1.10;;
76856;SDS011;69705;44.686;37.628;2023-05-10T03:35:00;3.67;;;0.90;;
76856;SDS011;69705;44.686;37.628;2023-05-10T03:37:32;3.72;;;0.90;;
76856;SDS011;69705;44.686;37.628;2023-05-10T03:39:59;3.20;;;0.90;;
76856;SDS011;69705;44.686;37.628;2023-05-10T03:42:26;4.00;;;1.00;;
76856;SDS011;69705;44.686;37.628;2023-05-10T03:44:52;3.58;;;1.00;;
76856;SDS011;69705;44.686;37.628;2023-05-10T03:47:19;5.20;;;0.90;;
76856;SDS011;69705;44.686;37.628;2023-05-10T03:49:46;3.35;;;0.90;;
76856;SDS011;69705;44.686;37.628;2023-05-10T03:52:12;4.97;;;0.90;;
76856;SDS011;69705;44.686;37.628;2023-05-10T03:54:39;3.28;;;1.00;;
76856;SDS011;69705;44.686;37.628;2023-05-10T03:57:05;3.75;;;0.90;;
76856;SDS011;69705;44.686;37.628;2023-05-10T03:59:32;3.95;;;0.88;;
76856;SDS011;69705;44.686;37.628;2023-05-10T04:01:58;2.72;;;0.80;;
76856;SDS011;69705;44.686;37.628;2023-05-10T04:04:25;2.73;;;0.63;;
76856;SDS011;69705;44.686;37.628;2023-05-10T04:06:52;2.95;;;0.88;;
76856;SDS011;69705;44.686;37.628;2023-05-10T04:09:19;2.88;;;0.80;;
76856;SDS011;69705;44.686;37.628;2023-05-10T04:11:45;3.38;;;0.82;;
76856;SDS011;69705;44.686;37.628;2023-05-10T04:14:12;3.83;;;1.00;;
76856;SDS011;69705;44.686;37.628;2023-05-10T04:16:38;3.93;;;0.80;;
76856;SDS011;69705;44.686;37.628;2023-05-10T04:19:05;3.38;;;0.82;;
76856;SDS011;69705;44.686;37.628;2023-05-10T04:21:32;4.28;;;0.90;;
76856;SDS011;69705;44.686;37.628;2023-05-10T04:23:58;2.97;;;0.80;;
76856;SDS011;69705;44.686;37.628;2023-05-10T04:26:25;4.05;;;1.00;;
76856;SDS011;69705;44.686;37.628;2023-05-10T04:28:52;3.40;;;1.03;;
76856;SDS011;69705;44.686;37.628;2023-05-10T04:31:18;3.92;;;1.00;;
76856;SDS011;69705;44.686;37.628;2023-05-10T04:33:45;3.25;;;0.93;;
76856;SDS011;69705;44.686;37.628;2023-05-10T04:36:11;3.80;;;0.90;;
76856;SDS011;69705;44.686;37.628;2023-05-10T04:38:38;3.92;;;1.10;;
76856;SDS011;69705;44.686;37.628;2023-05-10T04:41:08;6.00;;;0.93;;
76856;SDS011;69705;44.686;37.628;2023-05-10T04:43:36;5.05;;;0.95;;
76856;SDS011;69705;44.686;37.628;2023-05-10T04:46:04;3.83;;;1.00;;
76856;SDS011;69705;44.686;37.628;2023-05-10T04:48:31;3.90;;;1.10;;
76856;SDS011;69705;44.686;37.628;2023-05-10T04:50:57;4.38;;;1.10;;
76856;SDS011;69705;44.686;37.628;2023-05-10T04:53:24;4.23;;;1.13;;
76856;SDS011;69705;44.686;37.628;2023-05-10T04:55:50;4.45;;;1.08;;
76856;SDS011;69705;44.686;37.628;2023-05-10T04:58:17;3.75;;;1.00;;
76856;SDS011;69705;44.686;37.628;2023-05-10T05:00:44;4.25;;;1.08;;
76856;SDS011;69705;44.686;37.628;2023-05-10T05:03:10;3.95;;;1.00;;
76856;SDS011;69705;44.686;37.628;2023-05-10T05:05:37;3.50;;;1.00;;
76856;SDS011;69705;44.686;37.628;2023-05-10T05:08:03;4.38;;;1.10;;
76856;SDS011;69705;44.686;37.628;2023-05-10T05:10:31;3.88;;;1.05;;
76856;SDS011;69705;44.686;37.628;2023-05-10T05:12:57;4.85;;;1.33;;
76856;SDS011;69705;44.686;37.628;2023-05-10T05:15:24;5.00;;;1.20;;
76856;SDS011;69705;44.686;37.628;2023-05-10T05:17:51;3.80;;;1.00;;
76856;SDS011;69705;44.686;37.628;2023-05-10T05:20:17;5.07;;;1.10;;
76856;SDS011;69705;44.686;37.628;2023-05-10T05:22:44;4.20;;;1.10;;
76856;SDS011;69705;44.686;37.628;2023-05-10T05:25:11;3.30;;;0.93;;
76856;SDS011;69705;44.686;37.628;2023-05-10T05:27:38;4.13;;;1.10;;
76856;SDS011;69705;44.686;37.628;2023-05-10T05:30:05;6.37;;;1.13;;
76856;SDS011;69705;44.686;37.628;2023-05-10T05:32:32;3.72;;;1.10;;
76856;SDS011;69705;44.686;37.628;2023-05-10T05:34:59;5.93;;;1.30;;
76856;SDS011;69705;44.686;37.628;2023-05-10T05:37:25;6.38;;;1.30;;
76856;SDS011;69705;44.686;37.628;2023-05-10T05:39:52;5.57;;;1.70;;
76856;SDS011;69705;44.686;37.628;2023-05-10T05:42:20;5.33;;;1.60;;
76856;SDS011;69705;44.686;37.628;2023-05-10T05:44:46;5.10;;;1.50;;
76856;SDS011;69705;44.686;37.628;2023-05-10T05:47:13;5.30;;;1.50;;
76856;SDS011;69705;44.686;37.628;2023-05-10T05:49:39;3.88;;;1.15;;
76856;SDS011;69705;44.686;37.628;2023-05-10T05:52:06;4.13;;;1.40;;
76856;SDS011;69705;44.686;37.628;2023-05-10T05:54:32;4.80;;;1.10;;
76856;SDS011;69705;44.686;37.628;2023-05-10T05:56:59;4.40;;;1.30;;
76856;SDS011;69705;44.686;37.628;2023-05-10T05:59:26;6.53;;;1.52;;
76856;SDS011;69705;44.686;37.628;2023-05-10T06:01:53;6.30;;;1.60;;
76856;SDS011;69705;44.686;37.628;2023-05-10T06:04:20;5.32;;;1.50;;
76856;SDS011;69705;44.686;37.628;2023-05-10T06:06:47;10.03;;;2.70;;
76856;SDS011;69705;44.686;37.628;2023-05-10T06:09:13;9.23;;;3.22;;
76856;SDS011;69705;44.686;37.628;2023-05-10T06:11:40;9.30;;;3.83;;
76856;SDS011;69705;44.686;37.628;2023-05-10T06:14:06;9.77;;;3.53;;
76856;SDS011;69705;44.686;37.628;2023-05-10T06:16:34;9.82;;;3.80;;
76856;SDS011;69705;44.686;37.628;2023-05-10T06:19:01;9.03;;;3.20;;
76856;SDS011;69705;44.686;37.628;2023-05-10T06:21:28;9.68;;;3.35;;
76856;SDS011;69705;44.686;37.628;2023-05-10T06:23:56;8.15;;;2.72;;
76856;SDS011;69705;44.686;37.628;2023-05-10T06:26:23;6.95;;;1.60;;
76856;SDS011;69705;44.686;37.628;2023-05-10T06:28:50;6.80;;;1.50;;
76856;SDS011;69705;44.686;37.628;2023-05-10T06:31:17;6.13;;;2.20;;
76856;SDS011;69705;44.686;37.628;2023-05-10T06:33:43;6.25;;;2.20;;
76856;SDS011;69705;44.686;37.628;2023-05-10T06:36:11;6.25;;;2.40;;
76856;SDS011;69705;44.686;37.628;2023-05-10T06:38:37;5.78;;;1.95;;
76856;SDS011;69705;44.686;37.628;2023-05-10T06:41:04;5.72;;;1.80;;
76856;SDS011;69705;44.686;37.628;2023-05-10T06:43:31;5.00;;;1.50;;
76856;SDS011;69705;44.686;37.628;2023-05-10T06:45:58;7.35;;;1.70;;
76856;SDS011;69705;44.686;37.628;2023-05-10T06:48:25;6.32;;;1.52;;
76856;SDS011;69705;44.686;37.628;2023-05-10T06:50:52;7.80;;;1.70;;
76856;SDS011;69705;44.686;37.628;2023-05-10T06:53:18;5.25;;;1.85;;
76856;SDS011;69705;44.686;37.628;2023-05-10T06:55:45;6.13;;;1.90;;
76856;SDS011;69705;44.686;37.628;2023-05-10T06:58:12;6.65;;;2.53;;
76856;SDS011;69705;44.686;37.628;2023-05-10T07:00:39;6.50;;;2.63;;
76856;SDS011;69705;44.686;37.628;2023-05-10T07:03:11;8.70;;;3.00;;
76856;SDS011;69705;44.686;37.628;2023-05-10T07:05:38;7.78;;;2.50;;
76856;SDS011;69705;44.686;37.628;2023-05-10T07:08:05;7.37;;;2.27;;
76856;SDS011;69705;44.686;37.628;2023-05-10T07:10:32;9.27;;;2.60;;
76856;SDS011;69705;44.686;37.628;2023-05-10T07:12:59;7.55;;;2.95;;
76856;SDS011;69705;44.686;37.628;2023-05-10T07:15:27;7.63;;;2.35;;
76856;SDS011;69705;44.686;37.628;2023-05-10T07:17:54;6.95;;;1.95;;
76856;SDS011;69705;44.686;37.628;2023-05-10T07:20:21;5.90;;;2.20;;
76856;SDS011;69705;44.686;37.628;2023-05-10T07:22:48;5.35;;;1.90;;
76856;SDS011;69705;44.686;37.628;2023-05-10T11:21:08;8.00;;;2.50;;
76856;SDS011;69705;44.686;37.628;2023-05-10T11:26:13;5.97;;;2.70;;
76856;SDS011;69705;44.686;37.628;2023-05-10T11:28:44;6.82;;;2.80;;
76856;SDS011;69705;44.686;37.628;2023-05-10T11:31:15;8.15;;;2.58;;
76856;SDS011;69705;44.686;37.628;2023-05-10T11:33:49;6.33;;;2.47;;
76856;SDS011;69705;44.686;37.628;2023-05-10T11:36:19;7.35;;;2.50;;
76856;SDS011;69705;44.686;37.628;2023-05-10T11:38:47;6.97;;;2.75;;
76856;SDS011;69705;44.686;37.628;2023-05-10T11:41:15;11.57;;;3.13;;
76856;SDS011;69705;44.686;37.628;2023-05-10T11:43:46;8.95;;;3.17;;
76856;SDS011;69705;44.686;37.628;2023-05-10T11:46:15;7.17;;;3.20;;
76856;SDS011;69705;44.686;37.628;2023-05-10T11:48:44;7.78;;;3.17;;
76856;SDS011;69705;44.686;37.628;2023-05-10T11:51:11;8.30;;;3.50;;
76856;SDS011;69705;44.686;37.628;2023-05-10T11:53:38;10.65;;;3.90;;
76856;SDS011;69705;44.686;37.628;2023-05-10T11:56:05;7.25;;;3.60;;
76856;SDS011;69705;44.686;37.628;2023-05-10T11:58:33;6.97;;;3.50;;
76856;SDS011;69705;44.686;37.628;2023-05-10T12:01:00;7.53;;;3.30;;
76856;SDS011;69705;44.686;37.628;2023-05-10T12:03:29;9.07;;;3.80;;
76856;SDS011;69705;44.686;37.628;2023-05-10T12:05:57;10.05;;;3.95;;
76856;SDS011;69705;44.686;37.628;2023-05-10T12:08:25;7.22;;;3.33;;
76856;SDS011;69705;44.686;37.628;2023-05-10T12:10:53;9.20;;;3.47;;
76856;SDS011;69705;44.686;37.628;2023-05-10T12:13:29;7.80;;;3.63;;
76856;SDS011;69705;44.686;37.628;2023-05-10T12:15:59;7.28;;;3.33;;
76856;SDS011;69705;44.686;37.628;2023-05-10T12:18:39;8.40;;;3.20;;
76856;SDS011;69705;44.686;37.628;2023-05-10T12:21:09;8.18;;;2.80;;
76856;SDS011;69705;44.686;37.628;2023-05-10T12:23:39;6.83;;;2.93;;
76856;SDS011;69705;44.686;37.628;2023-05-10T12:26:06;8.80;;;3.40;;
76856;SDS011;69705;44.686;37.628;2023-05-10T12:28:37;7.30;;;3.30;;
76856;SDS011;69705;44.686;37.628;2023-05-10T12:31:05;7.00;;;3.00;;
76856;SDS011;69705;44.686;37.628;2023-05-10T12:33:36;6.45;;;2.95;;
76856;SDS011;69705;44.686;37.628;2023-05-10T12:36:15;6.50;;;2.87;;
76856;SDS011;69705;44.686;37.628;2023-05-10T12:38:44;11.52;;;3.00;;
76856;SDS011;69705;44.686;37.628;2023-05-10T12:41:17;5.88;;;2.90;;
76856;SDS011;69705;44.686;37.628;2023-05-10T12:43:44;7.20;;;2.60;;
76856;SDS011;69705;44.686;37.628;2023-05-10T12:46:13;5.70;;;2.75;;
76856;SDS011;69705;44.686;37.628;2023-05-10T12:48:43;7.50;;;2.80;;
76856;SDS011;69705;44.686;37.628;2023-05-10T12:51:12;6.68;;;2.65;;
76856;SDS011;69705;44.686;37.628;2023-05-10T12:53:41;5.38;;;2.38;;
76856;SDS011;69705;44.686;37.628;2023-05-10T12:56:08;9.38;;;2.70;;
76856;SDS011;69705;44.686;37.628;2023-05-10T12:58:35;6.78;;;2.70;;
76856;SDS011;69705;44.686;37.628;2023-05-10T13:01:02;6.90;;;2.67;;
76856;SDS011;69705;44.686;37.628;2023-05-10T13:03:30;5.65;;;2.50;;
76856;SDS011;69705;44.686;37.628;2023-05-10T13:05:57;7.00;;;3.10;;
76856;SDS011;69705;44.686;37.628;2023-05-10T13:08:24;5.40;;;2.58;;
76856;SDS011;69705;44.686;37.628;2023-05-10T13:10:51;6.95;;;2.85;;
76856;SDS011;69705;44.686;37.628;2023-05-10T13:13:18;6.70;;;2.73;;
76856;SDS011;69705;44.686;37.628;2023-05-10T13:15:44;6.63;;;2.85;;
76856;SDS011;69705;44.686;37.628;2023-05-10T13:18:11;5.70;;;2.67;;
76856;SDS011;69705;44.686;37.628;2023-05-10T13:20:38;6.55;;;2.92;;
76856;SDS011;69705;44.686;37.628;2023-05-10T13:23:05;6.40;;;2.55;;
76856;SDS011;69705;44.686;37.628;2023-05-10T13:25:32;6.50;;;2.60;;
76856;SDS011;69705;44.686;37.628;2023-05-10T13:28:00;7.18;;;2.85;;
76856;SDS011;69705;44.686;37.628;2023-05-10T13:30:28;9.32;;;2.70;;
76856;SDS011;69705;44.686;37.628;2023-05-10T13:32:55;8.18;;;2.67;;
76856;SDS011;69705;44.686;37.628;2023-05-10T13:35:21;8.05;;;2.50;;
76856;SDS011;69705;44.686;37.628;2023-05-10T13:37:48;8.23;;;2.83;;
76856;SDS011;69705;44.686;37.628;2023-05-10T13:40:15;5.72;;;2.78;;
76856;SDS011;69705;44.686;37.628;2023-05-10T13:42:42;7.50;;;2.72;;
76856;SDS011;69705;44.686;37.628;2023-05-10T13:45:09;6.10;;;2.50;;
76856;SDS011;69705;44.686;37.628;2023-05-10T13:47:38;6.47;;;2.50;;
76856;SDS011;69705;44.686;37.628;2023-05-10T13:50:04;5.40;;;2.50;;
76856;SDS011;69705;44.686;37.628;2023-05-10T13:52:32;5.95;;;2.58;;
76856;SDS011;69705;44.686;37.628;2023-05-10T13:54:59;7.90;;;2.47;;
76856;SDS011;69705;44.686;37.628;2023-05-10T13:57:25;7.38;;;2.72;;
76856;SDS011;69705;44.686;37.628;2023-05-10T13:59:52;7.10;;;2.60;;
76856;SDS011;69705;44.686;37.628;2023-05-10T14:02:19;5.87;;;2.50;;
76856;SDS011;69705;44.686;37.628;2023-05-10T14:04:46;5.35;;;2.60;;
76856;SDS011;69705;44.686;37.628;2023-05-10T14:07:14;5.82;;;2.63;;
76856;SDS011;69705;44.686;37.628;2023-05-10T14:09:40;6.13;;;2.50;;
76856;SDS011;69705;44.686;37.628;2023-05-10T14:12:07;5.82;;;2.42;;
76856;SDS011;69705;44.686;37.628;2023-05-10T14:14:34;6.63;;;2.57;;
76856;SDS011;69705;44.686;37.628;2023-05-10T14:17:01;6.78;;;2.90;;
76856;SDS011;69705;44.686;37.628;2023-05-10T14:19:28;9.43;;;2.95;;
76856;SDS011;69705;44.686;37.628;2023-05-10T14:21:58;6.00;;;3.05;;
76856;SDS011;69705;44.686;37.628;2023-05-10T14:24:24;8.32;;;3.03;;
76856;SDS011;69705;44.686;37.628;2023-05-10T14:26:51;6.57;;;3.10;;
76856;SDS011;69705;44.686;37.628;2023-05-10T14:29:20;8.07;;;3.00;;
76856;SDS011;69705;44.686;37.628;2023-05-10T14:31:47;7.88;;;3.00;;
76856;SDS011;69705;44.686;37.628;2023-05-10T14:34:14;6.97;;;3.35;;
76856;SDS011;69705;44.686;37.628;2023-05-10T14:36:40;6.00;;;3.40;;
76856;SDS011;69705;44.686;37.628;2023-05-10T14:39:07;6.70;;;3.10;;
76856;SDS011;69705;44.686;37.628;2023-05-10T14:41:35;8.00;;;3.50;;
76856;SDS011;69705;44.686;37.628;2023-05-10T14:44:02;8.07;;;3.38;;
76856;SDS011;69705;44.686;37.628;2023-05-10T14:46:34;8.02;;;3.33;;
76856;SDS011;69705;44.686;37.628;2023-05-10T14:49:01;5.97;;;3.25;;
76856;SDS011;69705;44.686;37.628;2023-05-10T14:51:27;8.60;;;3.50;;
76856;SDS011;69705;44.686;37.628;2023-05-10T14:53:54;6.30;;;3.35;;
76856;SDS011;69705;44.686;37.628;2023-05-10T14:56:21;7.55;;;3.22;;
76856;SDS011;69705;44.686;37.628;2023-05-10T14:58:49;6.68;;;3.20;;
76856;SDS011;69705;44.686;37.628;2023-05-10T15:01:15;7.35;;;3.30;;
76856;SDS011;69705;44.686;37.628;2023-05-10T15:03:42;6.60;;;3.40;;
76856;SDS011;69705;44.686;37.628;2023-05-10T15:06:09;5.53;;;2.83;;
76856;SDS011;69705;44.686;37.628;2023-05-10T15:08:35;6.45;;;3.17;;
76856;SDS011;69705;44.686;37.628;2023-05-10T15:11:02;6.85;;;2.80;;
76856;SDS011;69705;44.686;37.628;2023-05-10T15:13:28;6.72;;;3.08;;
76856;SDS011;69705;44.686;37.628;2023-05-10T15:15:55;5.83;;;2.90;;
76856;SDS011;69705;44.686;37.628;2023-05-10T15:18:22;7.07;;;2.83;;
76856;SDS011;69705;44.686;37.628;2023-05-10T15:20:48;7.10;;;3.00;;
76856;SDS011;69705;44.686;37.628;2023-05-10T15:23:15;6.40;;;3.05;;
76856;SDS011;69705;44.686;37.628;2023-05-10T15:25:42;6.78;;;3.00;;
76856;SDS011;69705;44.686;37.628;2023-05-10T15:28:08;7.97;;;3.10;;
76856;SDS011;69705;44.686;37.628;2023-05-10T15:30:35;9.65;;;3.20;;
76856;SDS011;69705;44.686;37.628;2023-05-10T15:33:01;8.90;;;3.25;;
76856;SDS011;69705;44.686;37.628;2023-05-10T15:35:28;6.18;;;2.97;;
76856;SDS011;69705;44.686;37.628;2023-05-10T15:37:54;6.28;;;2.67;;
76856;SDS011;69705;44.686;37.628;2023-05-10T15:40:21;6.53;;;2.87;;
76856;SDS011;69705;44.686;37.628;2023-05-10T15:42:48;5.47;;;2.65;;
76856;SDS011;69705;44.686;37.628;2023-05-10T15:45:15;6.10;;;2.63;;
76856;SDS011;69705;44.686;37.628;2023-05-10T15:47:42;6.75;;;2.70;;
76856;SDS011;69705;44.686;37.628;2023-05-10T15:50:09;6.00;;;2.95;;
76856;SDS011;69705;44.686;37.628;2023-05-10T15:52:37;6.03;;;2.90;;
76856;SDS011;69705;44.686;37.628;2023-05-10T15:55:03;6.63;;;2.97;;
76856;SDS011;69705;44.686;37.628;2023-05-10T15:57:40;7.07;;;3.17;;
76856;SDS011;69705;44.686;37.628;2023-05-10T16:00:08;6.38;;;2.88;;
76856;SDS011;69705;44.686;37.628;2023-05-10T16:02:39;5.95;;;2.72;;
76856;SDS011;69705;44.686;37.628;2023-05-10T16:05:06;7.53;;;2.87;;
76856;SDS011;69705;44.686;37.628;2023-05-10T16:07:34;6.28;;;2.92;;
76856;SDS011;69705;44.686;37.628;2023-05-10T16:10:01;5.78;;;3.30;;
76856;SDS011;69705;44.686;37.628;2023-05-10T16:12:29;7.75;;;3.30;;
76856;SDS011;69705;44.686;37.628;2023-05-10T16:14:56;6.15;;;3.20;;
76856;SDS011;69705;44.686;37.628;2023-05-10T16:17:22;8.37;;;3.50;;
76856;SDS011;69705;44.686;37.628;2023-05-10T16:19:49;7.57;;;3.33;;
76856;SDS011;69705;44.686;37.628;2023-05-10T16:22:16;7.05;;;3.30;;
76856;SDS011;69705;44.686;37.628;2023-05-10T16:24:43;7.90;;;3.47;;
76856;SDS011;69705;44.686;37.628;2023-05-10T16:27:09;6.40;;;3.30;;
76856;SDS011;69705;44.686;37.628;2023-05-10T16:29:38;7.87;;;3.67;;
76856;SDS011;69705;44.686;37.628;2023-05-10T16:32:04;8.15;;;3.45;;
76856;SDS011;69705;44.686;37.628;2023-05-10T16:34:31;7.63;;;3.60;;
76856;SDS011;69705;44.686;37.628;2023-05-10T16:36:57;7.43;;;3.60;;
76856;SDS011;69705;44.686;37.628;2023-05-10T16:39:24;8.35;;;3.75;;
76856;SDS011;69705;44.686;37.628;2023-05-10T16:41:50;7.27;;;3.77;;
76856;SDS011;69705;44.686;37.628;2023-05-10T16:44:17;8.07;;;3.75;;
76856;SDS011;69705;44.686;37.628;2023-05-10T16:46:43;9.52;;;4.22;;
76856;SDS011;69705;44.686;37.628;2023-05-10T16:49:10;7.82;;;3.80;;
76856;SDS011;69705;44.686;37.628;2023-05-10T16:51:37;8.05;;;3.90;;
76856;SDS011;69705;44.686;37.628;2023-05-10T16:54:03;9.70;;;4.00;;
76856;SDS011;69705;44.686;37.628;2023-05-10T16:56:30;9.65;;;3.85;;
76856;SDS011;69705;44.686;37.628;2023-05-10T16:58:56;9.07;;;4.20;;
76856;SDS011;69705;44.686;37.628;2023-05-10T17:01:23;7.38;;;4.32;;
76856;SDS011;69705;44.686;37.628;2023-05-10T17:03:49;10.70;;;5.55;;
76856;SDS011;69705;44.686;37.628;2023-05-10T17:06:16;12.63;;;6.40;;
76856;SDS011;69705;44.686;37.628;2023-05-10T17:08:43;13.95;;;6.65;;
76856;SDS011;69705;44.686;37.628;2023-05-10T17:11:09;14.27;;;6.43;;
76856;SDS011;69705;44.686;37.628;2023-05-10T17:13:36;14.32;;;6.10;;
76856;SDS011;69705;44.686;37.628;2023-05-10T17:16:03;13.23;;;5.20;;
76856;SDS011;69705;44.686;37.628;2023-05-10T17:18:30;12.10;;;5.40;;
76856;SDS011;69705;44.686;37.628;2023-05-10T17:20:57;10.88;;;5.15;;
76856;SDS011;69705;44.686;37.628;2023-05-10T17:23:24;9.93;;;4.88;;
76856;SDS011;69705;44.686;37.628;2023-05-10T17:25:51;9.20;;;4.88;;
76856;SDS011;69705;44.686;37.628;2023-05-10T17:28:18;11.82;;;5.40;;
76856;SDS011;69705;44.686;37.628;2023-05-10T17:30:45;9.70;;;5.20;;
76856;SDS011;69705;44.686;37.628;2023-05-10T17:33:11;10.43;;;5.35;;
76856;SDS011;69705;44.686;37.628;2023-05-10T17:35:38;11.57;;;5.50;;
76856;SDS011;69705;44.686;37.628;2023-05-10T17:38:05;9.43;;;5.50;;
76856;SDS011;69705;44.686;37.628;2023-05-10T17:40:32;10.07;;;5.28;;
76856;SDS011;69705;44.686;37.628;2023-05-10T17:42:58;9.00;;;5.50;;
76856;SDS011;69705;44.686;37.628;2023-05-10T17:45:25;11.85;;;5.63;;
76856;SDS011;69705;44.686;37.628;2023-05-10T17:47:52;9.23;;;5.60;;
76856;SDS011;69705;44.686;37.628;2023-05-10T17:50:19;8.93;;;5.65;;
76856;SDS011;69705;44.686;37.628;2023-05-10T17:52:46;9.15;;;5.68;;
76856;SDS011;69705;44.686;37.628;2023-05-10T17:55:13;9.40;;;5.93;;
76856;SDS011;69705;44.686;37.628;2023-05-10T17:57:40;10.40;;;6.20;;
76856;SDS011;69705;44.686;37.628;2023-05-10T18:00:06;10.20;;;5.70;;
76856;SDS011;69705;44.686;37.628;2023-05-10T18:02:35;10.95;;;6.22;;
76856;SDS011;69705;44.686;37.628;2023-05-10T18:05:02;9.57;;;5.95;;
76856;SDS011;69705;44.686;37.628;2023-05-10T18:07:31;10.87;;;6.30;;
76856;SDS011;69705;44.686;37.628;2023-05-10T18:09:58;11.70;;;6.53;;
76856;SDS011;69705;44.686;37.628;2023-05-10T18:12:26;12.02;;;6.70;;
76856;SDS011;69705;44.686;37.628;2023-05-10T18:14:53;16.02;;;6.90;;
76856;SDS011;69705;44.686;37.628;2023-05-10T18:17:19;11.63;;;6.82;;
76856;SDS011;69705;44.686;37.628;2023-05-10T18:19:46;12.63;;;7.40;;
76856;SDS011;69705;44.686;37.628;2023-05-10T18:22:13;11.93;;;6.97;;
76856;SDS011;69705;44.686;37.628;2023-05-10T18:24:40;11.48;;;7.28;;
76856;SDS011;69705;44.686;37.628;2023-05-10T18:27:07;12.85;;;7.82;;
76856;SDS011;69705;44.686;37.628;2023-05-10T18:29:34;16.52;;;8.25;;
76856;SDS011;69705;44.686;37.628;2023-05-10T18:32:01;11.80;;;7.80;;
76856;SDS011;69705;44.686;37.628;2023-05-10T18:34:28;13.93;;;8.30;;
76856;SDS011;69705;44.686;37.628;2023-05-10T18:36:54;13.13;;;8.40;;
76856;SDS011;69705;44.686;37.628;2023-05-10T18:39:21;13.63;;;8.10;;
76856;SDS011;69705;44.686;37.628;2023-05-10T18:41:49;16.42;;;9.27;;
76856;SDS011;69705;44.686;37.628;2023-05-10T18:44:15;13.87;;;9.30;;
76856;SDS011;69705;44.686;37.628;2023-05-10T18:46:43;13.73;;;9.20;;
76856;SDS011;69705;44.686;37.628;2023-05-10T18:49:10;14.65;;;9.10;;
76856;SDS011;69705;44.686;37.628;2023-05-10T18:51:36;15.98;;;8.95;;
76856;SDS011;69705;44.686;37.628;2023-05-10T18:54:03;15.52;;;9.27;;
76856;SDS011;69705;44.686;37.628;2023-05-10T18:56:29;17.73;;;8.77;;
76856;SDS011;69705;44.686;37.628;2023-05-10T18:58:56;17.15;;;9.50;;
76856;SDS011;69705;44.686;37.628;2023-05-10T19:01:22;20.38;;;9.95;;